sensor_id;sensor_type;location;lat;lon;timestamp;P1;durP1;ratioP1;P2;durP2;ratioP2
36391;SDS011;22639;42.690;23.356;2022-11-21T00:00:11;10.90;;;8.73;;
36391;SDS011;22639;42.690;23.356;2022-11-21T00:02:36;10.73;;;8.10;;
36391;SDS011;22639;42.690;23.356;2022-11-21T00:05:01;9.70;;;7.40;;
36391;SDS011;22639;42.690;23.356;2022-11-21T00:07:26;8.33;;;4.80;;
36391;SDS011;22639;42.690;23.356;2022-11-21T00:09:52;7.03;;;4.90;;
36391;SDS011;22639;42.690;23.356;2022-11-21T00:12:17;9.40;;;5.47;;
36391;SDS011;22639;42.690;23.356;2022-11-21T00:14:42;8.87;;;5.40;;
36391;SDS011;22639;42.690;23.356;2022-11-21T00:17:08;8.43;;;5.03;;
36391;SDS011;22639;42.690;23.356;2022-11-21T00:19:33;10.47;;;5.97;;
36391;SDS011;22639;42.690;23.356;2022-11-21T00:21:59;9.90;;;4.83;;
36391;SDS011;22639;42.690;23.356;2022-11-21T00:24:24;5.67;;;3.87;;
36391;SDS011;22639;42.690;23.356;2022-11-21T00:26:49;4.10;;;3.50;;
36391;SDS011;22639;42.690;23.356;2022-11-21T00:29:14;5.83;;;3.13;;
36391;SDS011;22639;42.690;23.356;2022-11-21T00:31:40;6.00;;;2.70;;
36391;SDS011;22639;42.690;23.356;2022-11-21T00:34:05;6.57;;;3.63;;
36391;SDS011;22639;42.690;23.356;2022-11-21T00:36:30;5.43;;;3.03;;
36391;SDS011;22639;42.690;23.356;2022-11-21T00:38:55;4.57;;;3.37;;
36391;SDS011;22639;42.690;23.356;2022-11-21T00:41:21;7.20;;;4.07;;
36391;SDS011;22639;42.690;23.356;2022-11-21T00:43:46;3.63;;;3.20;;
36391;SDS011;22639;42.690;23.356;2022-11-21T00:46:12;5.97;;;3.47;;
36391;SDS011;22639;42.690;23.356;2022-11-21T00:48:38;5.73;;;4.37;;
36391;SDS011;22639;42.690;23.356;2022-11-21T00:51:04;7.93;;;3.90;;
36391;SDS011;22639;42.690;23.356;2022-11-21T00:53:29;4.57;;;3.60;;
36391;SDS011;22639;42.690;23.356;2022-11-21T00:55:55;8.10;;;4.87;;
36391;SDS011;22639;42.690;23.356;2022-11-21T00:58:20;7.00;;;5.40;;
36391;SDS011;22639;42.690;23.356;2022-11-21T01:00:45;7.43;;;6.13;;
36391;SDS011;22639;42.690;23.356;2022-11-21T01:03:10;10.37;;;5.83;;
36391;SDS011;22639;42.690;23.356;2022-11-21T01:05:36;7.60;;;5.47;;
36391;SDS011;22639;42.690;23.356;2022-11-21T01:08:01;8.30;;;5.40;;
36391;SDS011;22639;42.690;23.356;2022-11-21T01:10:26;6.57;;;3.47;;
36391;SDS011;22639;42.690;23.356;2022-11-21T01:12:51;5.50;;;4.30;;
36391;SDS011;22639;42.690;23.356;2022-11-21T01:15:16;3.93;;;2.73;;
36391;SDS011;22639;42.690;23.356;2022-11-21T01:17:42;8.43;;;4.20;;
36391;SDS011;22639;42.690;23.356;2022-11-21T01:20:07;11.43;;;7.53;;
36391;SDS011;22639;42.690;23.356;2022-11-21T01:22:32;13.57;;;9.30;;
36391;SDS011;22639;42.690;23.356;2022-11-21T01:24:58;12.77;;;9.00;;
36391;SDS011;22639;42.690;23.356;2022-11-21T01:27:23;13.23;;;8.77;;
36391;SDS011;22639;42.690;23.356;2022-11-21T01:29:48;12.27;;;8.60;;
36391;SDS011;22639;42.690;23.356;2022-11-21T01:32:14;12.07;;;7.27;;
36391;SDS011;22639;42.690;23.356;2022-11-21T01:34:39;8.90;;;5.70;;
36391;SDS011;22639;42.690;23.356;2022-11-21T01:37:04;9.43;;;6.00;;
36391;SDS011;22639;42.690;23.356;2022-11-21T01:39:29;11.93;;;8.77;;
36391;SDS011;22639;42.690;23.356;2022-11-21T01:41:54;14.10;;;9.77;;
36391;SDS011;22639;42.690;23.356;2022-11-21T01:46:45;13.70;;;10.20;;
36391;SDS011;22639;42.690;23.356;2022-11-21T01:49:13;12.33;;;8.03;;
36391;SDS011;22639;42.690;23.356;2022-11-21T01:51:51;11.67;;;8.23;;
36391;SDS011;22639;42.690;23.356;2022-11-21T02:02:05;12.90;;;8.83;;
36391;SDS011;22639;42.690;23.356;2022-11-21T02:04:31;11.33;;;8.97;;
36391;SDS011;22639;42.690;23.356;2022-11-21T02:06:58;12.97;;;9.57;;
36391;SDS011;22639;42.690;23.356;2022-11-21T02:09:23;13.23;;;8.83;;
36391;SDS011;22639;42.690;23.356;2022-11-21T02:12:12;11.40;;;8.80;;
36391;SDS011;22639;42.690;23.356;2022-11-21T02:14:35;14.17;;;9.77;;
36391;SDS011;22639;42.690;23.356;2022-11-21T02:17:02;12.13;;;9.50;;
36391;SDS011;22639;42.690;23.356;2022-11-21T02:19:34;13.97;;;9.93;;
36391;SDS011;22639;42.690;23.356;2022-11-21T02:22:06;17.00;;;12.20;;
36391;SDS011;22639;42.690;23.356;2022-11-21T02:24:35;15.07;;;10.40;;
36391;SDS011;22639;42.690;23.356;2022-11-21T02:27:03;13.80;;;10.70;;
36391;SDS011;22639;42.690;23.356;2022-11-21T02:29:29;14.80;;;10.57;;
36391;SDS011;22639;42.690;23.356;2022-11-21T02:31:57;33.80;;;24.93;;
36391;SDS011;22639;42.690;23.356;2022-11-21T02:34:23;19.20;;;13.57;;
36391;SDS011;22639;42.690;23.356;2022-11-21T02:36:48;11.87;;;7.93;;
36391;SDS011;22639;42.690;23.356;2022-11-21T02:39:21;10.80;;;7.63;;
36391;SDS011;22639;42.690;23.356;2022-11-21T02:41:50;13.07;;;7.97;;
36391;SDS011;22639;42.690;23.356;2022-11-21T02:44:26;10.57;;;8.30;;
36391;SDS011;22639;42.690;23.356;2022-11-21T02:46:53;15.40;;;8.40;;
36391;SDS011;22639;42.690;23.356;2022-11-21T02:49:21;11.80;;;9.00;;
36391;SDS011;22639;42.690;23.356;2022-11-21T02:51:48;14.80;;;9.47;;
36391;SDS011;22639;42.690;23.356;2022-11-21T02:54:13;11.17;;;8.43;;
36391;SDS011;22639;42.690;23.356;2022-11-21T02:56:38;14.40;;;8.90;;
36391;SDS011;22639;42.690;23.356;2022-11-21T02:59:03;11.27;;;7.23;;
36391;SDS011;22639;42.690;23.356;2022-11-21T03:01:29;12.00;;;8.23;;
36391;SDS011;22639;42.690;23.356;2022-11-21T03:03:54;11.90;;;7.33;;
36391;SDS011;22639;42.690;23.356;2022-11-21T03:06:19;8.37;;;6.97;;
36391;SDS011;22639;42.690;23.356;2022-11-21T03:08:44;11.63;;;8.57;;
36391;SDS011;22639;42.690;23.356;2022-11-21T03:11:10;10.53;;;6.63;;
36391;SDS011;22639;42.690;23.356;2022-11-21T03:13:35;8.40;;;6.83;;
36391;SDS011;22639;42.690;23.356;2022-11-21T03:16:00;10.37;;;7.37;;
36391;SDS011;22639;42.690;23.356;2022-11-21T03:18:26;10.40;;;6.23;;
36391;SDS011;22639;42.690;23.356;2022-11-21T03:20:51;12.63;;;6.37;;
36391;SDS011;22639;42.690;23.356;2022-11-21T03:23:16;10.90;;;4.73;;
36391;SDS011;22639;42.690;23.356;2022-11-21T03:25:41;6.43;;;4.83;;
36391;SDS011;22639;42.690;23.356;2022-11-21T03:28:07;9.83;;;6.20;;
36391;SDS011;22639;42.690;23.356;2022-11-21T03:30:32;8.43;;;5.80;;
36391;SDS011;22639;42.690;23.356;2022-11-21T03:32:57;8.50;;;5.40;;
36391;SDS011;22639;42.690;23.356;2022-11-21T03:35:23;8.60;;;4.60;;
36391;SDS011;22639;42.690;23.356;2022-11-21T03:37:48;9.30;;;4.30;;
36391;SDS011;22639;42.690;23.356;2022-11-21T03:40:14;8.07;;;4.30;;
36391;SDS011;22639;42.690;23.356;2022-11-21T03:42:39;8.73;;;4.07;;
36391;SDS011;22639;42.690;23.356;2022-11-21T03:45:04;5.83;;;3.97;;
36391;SDS011;22639;42.690;23.356;2022-11-21T03:47:30;7.50;;;3.00;;
36391;SDS011;22639;42.690;23.356;2022-11-21T03:49:55;6.00;;;3.17;;
36391;SDS011;22639;42.690;23.356;2022-11-21T03:52:20;6.23;;;3.10;;
36391;SDS011;22639;42.690;23.356;2022-11-21T03:54:45;5.03;;;2.97;;
36391;SDS011;22639;42.690;23.356;2022-11-21T03:57:11;4.20;;;3.13;;
36391;SDS011;22639;42.690;23.356;2022-11-21T03:59:36;5.00;;;3.67;;
36391;SDS011;22639;42.690;23.356;2022-11-21T04:02:01;6.40;;;3.10;;
36391;SDS011;22639;42.690;23.356;2022-11-21T04:04:26;7.83;;;3.67;;
36391;SDS011;22639;42.690;23.356;2022-11-21T04:06:52;4.57;;;4.05;;
36391;SDS011;22639;42.690;23.356;2022-11-21T04:09:17;3.87;;;3.10;;
36391;SDS011;22639;42.690;23.356;2022-11-21T04:11:42;5.57;;;3.60;;
36391;SDS011;22639;42.690;23.356;2022-11-21T04:14:07;3.07;;;2.73;;
36391;SDS011;22639;42.690;23.356;2022-11-21T04:16:32;3.87;;;3.03;;
36391;SDS011;22639;42.690;23.356;2022-11-21T04:18:58;9.27;;;3.87;;
36391;SDS011;22639;42.690;23.356;2022-11-21T04:21:23;10.73;;;6.60;;
36391;SDS011;22639;42.690;23.356;2022-11-21T04:23:48;11.68;;;5.65;;
36391;SDS011;22639;42.690;23.356;2022-11-21T04:26:13;6.03;;;4.27;;
36391;SDS011;22639;42.690;23.356;2022-11-21T04:28:38;3.57;;;2.70;;
36391;SDS011;22639;42.690;23.356;2022-11-21T04:31:04;3.87;;;3.23;;
36391;SDS011;22639;42.690;23.356;2022-11-21T04:33:30;4.25;;;3.70;;
36391;SDS011;22639;42.690;23.356;2022-11-21T04:35:55;8.07;;;4.90;;
36391;SDS011;22639;42.690;23.356;2022-11-21T04:38:20;4.57;;;2.90;;
36391;SDS011;22639;42.690;23.356;2022-11-21T04:40:45;5.87;;;4.00;;
36391;SDS011;22639;42.690;23.356;2022-11-21T04:43:11;7.83;;;5.17;;
36391;SDS011;22639;42.690;23.356;2022-11-21T04:45:36;15.93;;;7.77;;
36391;SDS011;22639;42.690;23.356;2022-11-21T04:48:01;7.93;;;4.97;;
36391;SDS011;22639;42.690;23.356;2022-11-21T04:50:26;5.13;;;3.57;;
36391;SDS011;22639;42.690;23.356;2022-11-21T04:52:52;8.83;;;4.90;;
36391;SDS011;22639;42.690;23.356;2022-11-21T04:55:19;5.33;;;4.10;;
36391;SDS011;22639;42.690;23.356;2022-11-21T04:57:44;3.97;;;2.80;;
36391;SDS011;22639;42.690;23.356;2022-11-21T05:00:09;6.23;;;3.03;;
36391;SDS011;22639;42.690;23.356;2022-11-21T05:02:35;5.83;;;4.30;;
36391;SDS011;22639;42.690;23.356;2022-11-21T05:05:00;9.53;;;4.90;;
36391;SDS011;22639;42.690;23.356;2022-11-21T05:07:25;3.47;;;3.10;;
36391;SDS011;22639;42.690;23.356;2022-11-21T05:09:50;4.63;;;3.00;;
36391;SDS011;22639;42.690;23.356;2022-11-21T05:12:16;5.47;;;3.30;;
36391;SDS011;22639;42.690;23.356;2022-11-21T05:15:00;6.80;;;5.00;;
36391;SDS011;22639;42.690;23.356;2022-11-21T05:17:26;3.70;;;3.13;;
36391;SDS011;22639;42.690;23.356;2022-11-21T05:19:51;5.10;;;4.30;;
36391;SDS011;22639;42.690;23.356;2022-11-21T05:22:17;3.30;;;2.90;;
36391;SDS011;22639;42.690;23.356;2022-11-21T05:24:42;3.37;;;2.40;;
36391;SDS011;22639;42.690;23.356;2022-11-21T05:27:07;6.47;;;2.40;;
36391;SDS011;22639;42.690;23.356;2022-11-21T05:29:32;1.93;;;1.83;;
36391;SDS011;22639;42.690;23.356;2022-11-21T05:31:58;3.37;;;1.20;;
36391;SDS011;22639;42.690;23.356;2022-11-21T05:34:23;2.63;;;1.50;;
36391;SDS011;22639;42.690;23.356;2022-11-21T05:36:48;1.60;;;1.50;;
36391;SDS011;22639;42.690;23.356;2022-11-21T05:39:13;2.00;;;1.70;;
36391;SDS011;22639;42.690;23.356;2022-11-21T05:41:40;2.07;;;1.67;;
36391;SDS011;22639;42.690;23.356;2022-11-21T05:44:05;1.93;;;1.20;;
36391;SDS011;22639;42.690;23.356;2022-11-21T05:46:30;5.87;;;1.73;;
36391;SDS011;22639;42.690;23.356;2022-11-21T05:48:55;3.33;;;1.20;;
36391;SDS011;22639;42.690;23.356;2022-11-21T05:51:21;3.23;;;1.33;;
36391;SDS011;22639;42.690;23.356;2022-11-21T05:53:47;3.77;;;1.90;;
36391;SDS011;22639;42.690;23.356;2022-11-21T05:56:13;1.47;;;1.37;;
36391;SDS011;22639;42.690;23.356;2022-11-21T05:58:39;2.27;;;1.50;;
36391;SDS011;22639;42.690;23.356;2022-11-21T06:01:05;1.37;;;1.00;;
36391;SDS011;22639;42.690;23.356;2022-11-21T06:03:32;1.37;;;1.17;;
36391;SDS011;22639;42.690;23.356;2022-11-21T06:08:35;1.20;;;0.90;;
36391;SDS011;22639;42.690;23.356;2022-11-21T06:11:00;2.10;;;1.00;;
36391;SDS011;22639;42.690;23.356;2022-11-21T06:13:26;1.17;;;1.07;;
36391;SDS011;22639;42.690;23.356;2022-11-21T06:16:13;1.23;;;1.10;;
36391;SDS011;22639;42.690;23.356;2022-11-21T06:18:39;1.07;;;0.90;;
36391;SDS011;22639;42.690;23.356;2022-11-21T06:21:15;0.83;;;0.80;;
36391;SDS011;22639;42.690;23.356;2022-11-21T06:23:40;0.40;;;0.40;;
36391;SDS011;22639;42.690;23.356;2022-11-21T06:26:06;1.20;;;0.77;;
36391;SDS011;22639;42.690;23.356;2022-11-21T06:28:39;0.70;;;0.43;;
36391;SDS011;22639;42.690;23.356;2022-11-21T06:31:05;1.57;;;0.80;;
36391;SDS011;22639;42.690;23.356;2022-11-21T06:33:31;1.40;;;0.60;;
36391;SDS011;22639;42.690;23.356;2022-11-21T06:35:57;1.47;;;0.97;;
36391;SDS011;22639;42.690;23.356;2022-11-21T06:38:26;1.20;;;0.80;;
36391;SDS011;22639;42.690;23.356;2022-11-21T06:40:51;1.90;;;1.80;;
36391;SDS011;22639;42.690;23.356;2022-11-21T06:43:19;0.90;;;0.70;;
36391;SDS011;22639;42.690;23.356;2022-11-21T06:45:44;1.77;;;0.90;;
36391;SDS011;22639;42.690;23.356;2022-11-21T06:48:09;0.80;;;0.80;;
36391;SDS011;22639;42.690;23.356;2022-11-21T06:50:36;2.70;;;1.00;;
36391;SDS011;22639;42.690;23.356;2022-11-21T06:53:02;1.37;;;1.20;;
36391;SDS011;22639;42.690;23.356;2022-11-21T06:55:28;0.70;;;0.53;;
36391;SDS011;22639;42.690;23.356;2022-11-21T06:57:58;1.43;;;0.63;;
36391;SDS011;22639;42.690;23.356;2022-11-21T07:00:24;1.33;;;0.63;;
36391;SDS011;22639;42.690;23.356;2022-11-21T07:02:53;1.20;;;0.73;;
36391;SDS011;22639;42.690;23.356;2022-11-21T07:05:18;1.00;;;0.70;;
36391;SDS011;22639;42.690;23.356;2022-11-21T07:07:43;0.97;;;0.70;;
36391;SDS011;22639;42.690;23.356;2022-11-21T07:10:08;2.07;;;0.90;;
36391;SDS011;22639;42.690;23.356;2022-11-21T07:12:34;0.87;;;0.43;;
36391;SDS011;22639;42.690;23.356;2022-11-21T07:15:18;1.43;;;0.83;;
36391;SDS011;22639;42.690;23.356;2022-11-21T07:17:43;5.47;;;0.70;;
36391;SDS011;22639;42.690;23.356;2022-11-21T07:20:08;1.80;;;0.90;;
36391;SDS011;22639;42.690;23.356;2022-11-21T07:22:34;0.90;;;0.70;;
36391;SDS011;22639;42.690;23.356;2022-11-21T07:24:59;1.90;;;0.70;;
36391;SDS011;22639;42.690;23.356;2022-11-21T07:27:24;0.50;;;0.50;;
36391;SDS011;22639;42.690;23.356;2022-11-21T07:29:50;1.93;;;0.90;;
36391;SDS011;22639;42.690;23.356;2022-11-21T07:32:15;0.97;;;0.87;;
36391;SDS011;22639;42.690;23.356;2022-11-21T07:34:41;2.33;;;1.30;;
36391;SDS011;22639;42.690;23.356;2022-11-21T07:37:07;0.97;;;0.90;;
36391;SDS011;22639;42.690;23.356;2022-11-21T07:39:33;0.97;;;0.70;;
36391;SDS011;22639;42.690;23.356;2022-11-21T07:42:00;1.47;;;0.97;;
36391;SDS011;22639;42.690;23.356;2022-11-21T07:44:25;1.03;;;0.90;;
36391;SDS011;22639;42.690;23.356;2022-11-21T07:46:53;1.80;;;1.20;;
36391;SDS011;22639;42.690;23.356;2022-11-21T07:49:19;2.53;;;1.30;;
36391;SDS011;22639;42.690;23.356;2022-11-21T07:51:44;1.37;;;1.00;;
36391;SDS011;22639;42.690;23.356;2022-11-21T07:54:09;1.50;;;1.40;;
36391;SDS011;22639;42.690;23.356;2022-11-21T07:56:35;1.80;;;1.57;;
36391;SDS011;22639;42.690;23.356;2022-11-21T07:59:01;1.67;;;1.40;;
36391;SDS011;22639;42.690;23.356;2022-11-21T08:01:26;2.07;;;1.50;;
36391;SDS011;22639;42.690;23.356;2022-11-21T08:03:52;2.27;;;1.57;;
36391;SDS011;22639;42.690;23.356;2022-11-21T08:06:18;1.40;;;1.30;;
36391;SDS011;22639;42.690;23.356;2022-11-21T08:08:43;1.57;;;1.37;;
36391;SDS011;22639;42.690;23.356;2022-11-21T08:11:08;3.03;;;1.70;;
36391;SDS011;22639;42.690;23.356;2022-11-21T08:13:34;1.90;;;1.37;;
36391;SDS011;22639;42.690;23.356;2022-11-21T08:16:01;1.83;;;1.47;;
36391;SDS011;22639;42.690;23.356;2022-11-21T08:18:26;2.07;;;1.60;;
36391;SDS011;22639;42.690;23.356;2022-11-21T08:20:51;1.60;;;1.40;;
36391;SDS011;22639;42.690;23.356;2022-11-21T08:23:16;1.53;;;1.43;;
36391;SDS011;22639;42.690;23.356;2022-11-21T08:25:42;2.43;;;1.77;;
36391;SDS011;22639;42.690;23.356;2022-11-21T08:28:08;1.00;;;0.90;;
36391;SDS011;22639;42.690;23.356;2022-11-21T08:30:36;1.60;;;1.47;;
36391;SDS011;22639;42.690;23.356;2022-11-21T08:33:02;1.50;;;1.40;;
36391;SDS011;22639;42.690;23.356;2022-11-21T08:35:27;1.93;;;1.30;;
36391;SDS011;22639;42.690;23.356;2022-11-21T08:37:58;3.07;;;1.30;;
36391;SDS011;22639;42.690;23.356;2022-11-21T08:40:25;2.13;;;1.63;;
36391;SDS011;22639;42.690;23.356;2022-11-21T08:43:04;4.37;;;2.20;;
36391;SDS011;22639;42.690;23.356;2022-11-21T08:45:30;2.10;;;1.80;;
36391;SDS011;22639;42.690;23.356;2022-11-21T08:48:11;1.10;;;1.00;;
36391;SDS011;22639;42.690;23.356;2022-11-21T08:50:42;1.67;;;1.57;;
36391;SDS011;22639;42.690;23.356;2022-11-21T08:53:08;1.80;;;1.70;;
36391;SDS011;22639;42.690;23.356;2022-11-21T08:55:33;2.40;;;1.50;;
36391;SDS011;22639;42.690;23.356;2022-11-21T08:57:58;2.20;;;1.80;;
36391;SDS011;22639;42.690;23.356;2022-11-21T09:00:24;2.53;;;2.10;;
36391;SDS011;22639;42.690;23.356;2022-11-21T09:02:50;2.80;;;2.10;;
36391;SDS011;22639;42.690;23.356;2022-11-21T09:05:15;2.50;;;1.93;;
36391;SDS011;22639;42.690;23.356;2022-11-21T09:07:40;4.40;;;2.90;;
36391;SDS011;22639;42.690;23.356;2022-11-21T09:10:07;3.03;;;2.33;;
36391;SDS011;22639;42.690;23.356;2022-11-21T09:12:33;1.63;;;1.33;;
36391;SDS011;22639;42.690;23.356;2022-11-21T09:14:58;1.70;;;1.60;;
36391;SDS011;22639;42.690;23.356;2022-11-21T09:17:48;1.70;;;1.47;;
36391;SDS011;22639;42.690;23.356;2022-11-21T09:20:32;1.40;;;1.30;;
36391;SDS011;22639;42.690;23.356;2022-11-21T09:23:10;1.43;;;1.33;;
36391;SDS011;22639;42.690;23.356;2022-11-21T09:25:36;2.87;;;1.70;;
36391;SDS011;22639;42.690;23.356;2022-11-21T09:28:01;2.70;;;1.80;;
36391;SDS011;22639;42.690;23.356;2022-11-21T09:30:27;3.17;;;2.10;;
36391;SDS011;22639;42.690;23.356;2022-11-21T09:32:52;2.17;;;1.80;;
36391;SDS011;22639;42.690;23.356;2022-11-21T09:35:25;4.63;;;1.80;;
36391;SDS011;22639;42.690;23.356;2022-11-21T09:37:51;3.57;;;2.60;;
36391;SDS011;22639;42.690;23.356;2022-11-21T09:40:28;3.13;;;1.93;;
36391;SDS011;22639;42.690;23.356;2022-11-21T09:43:16;2.43;;;2.23;;
36391;SDS011;22639;42.690;23.356;2022-11-21T09:45:49;3.37;;;3.07;;
36391;SDS011;22639;42.690;23.356;2022-11-21T09:48:19;6.77;;;2.70;;
36391;SDS011;22639;42.690;23.356;2022-11-21T09:50:47;3.67;;;2.03;;
36391;SDS011;22639;42.690;23.356;2022-11-21T09:53:27;3.47;;;2.30;;
36391;SDS011;22639;42.690;23.356;2022-11-21T09:56:06;5.13;;;2.90;;
36391;SDS011;22639;42.690;23.356;2022-11-21T10:00:59;4.37;;;2.57;;
36391;SDS011;22639;42.690;23.356;2022-11-21T10:03:39;3.30;;;2.60;;
36391;SDS011;22639;42.690;23.356;2022-11-21T10:16:28;3.87;;;2.40;;
36391;SDS011;22639;42.690;23.356;2022-11-21T10:26:47;2.80;;;2.53;;
36391;SDS011;22639;42.690;23.356;2022-11-21T10:31:45;5.63;;;3.87;;
36391;SDS011;22639;42.690;23.356;2022-11-21T10:34:14;4.40;;;3.30;;
36391;SDS011;22639;42.690;23.356;2022-11-21T10:36:42;4.70;;;2.90;;
36391;SDS011;22639;42.690;23.356;2022-11-21T10:39:32;3.43;;;2.60;;
36391;SDS011;22639;42.690;23.356;2022-11-21T10:44:45;3.93;;;2.90;;
36391;SDS011;22639;42.690;23.356;2022-11-21T10:47:33;3.50;;;2.43;;
36391;SDS011;22639;42.690;23.356;2022-11-21T10:50:15;2.67;;;2.43;;
36391;SDS011;22639;42.690;23.356;2022-11-21T10:52:46;4.03;;;2.73;;
36391;SDS011;22639;42.690;23.356;2022-11-21T10:55:13;3.03;;;2.30;;
36391;SDS011;22639;42.690;23.356;2022-11-21T10:57:46;4.07;;;3.33;;
36391;SDS011;22639;42.690;23.356;2022-11-21T11:02:41;4.90;;;3.70;;
36391;SDS011;22639;42.690;23.356;2022-11-21T11:05:17;4.97;;;3.27;;
36391;SDS011;22639;42.690;23.356;2022-11-21T11:07:57;2.83;;;2.63;;
36391;SDS011;22639;42.690;23.356;2022-11-21T11:10:23;2.37;;;1.70;;
36391;SDS011;22639;42.690;23.356;2022-11-21T11:12:49;3.70;;;2.90;;
36391;SDS011;22639;42.690;23.356;2022-11-21T11:15:33;3.17;;;2.57;;
36391;SDS011;22639;42.690;23.356;2022-11-21T11:18:00;4.47;;;2.43;;
36391;SDS011;22639;42.690;23.356;2022-11-21T11:22:54;4.13;;;2.77;;
36391;SDS011;22639;42.690;23.356;2022-11-21T11:25:20;3.63;;;2.90;;
36391;SDS011;22639;42.690;23.356;2022-11-21T11:27:46;7.20;;;3.27;;
36391;SDS011;22639;42.690;23.356;2022-11-21T11:30:13;6.17;;;3.07;;
36391;SDS011;22639;42.690;23.356;2022-11-21T11:32:39;4.27;;;2.97;;
36391;SDS011;22639;42.690;23.356;2022-11-21T11:35:19;3.63;;;3.10;;
36391;SDS011;22639;42.690;23.356;2022-11-21T11:37:59;4.03;;;3.23;;
36391;SDS011;22639;42.690;23.356;2022-11-21T11:48:46;1.70;;;1.53;;
36391;SDS011;22639;42.690;23.356;2022-11-21T11:51:23;2.73;;;2.13;;
36391;SDS011;22639;42.690;23.356;2022-11-21T11:53:59;2.63;;;2.07;;
36391;SDS011;22639;42.690;23.356;2022-11-21T11:56:28;2.93;;;2.23;;
36391;SDS011;22639;42.690;23.356;2022-11-21T11:58:56;2.07;;;1.70;;
36391;SDS011;22639;42.690;23.356;2022-11-21T12:04:03;2.40;;;2.10;;
36391;SDS011;22639;42.690;23.356;2022-11-21T12:08:58;2.53;;;2.33;;
36391;SDS011;22639;42.690;23.356;2022-11-21T12:11:24;3.97;;;2.50;;
36391;SDS011;22639;42.690;23.356;2022-11-21T12:14:12;2.07;;;1.83;;
36391;SDS011;22639;42.690;23.356;2022-11-21T12:16:58;1.80;;;1.70;;
36391;SDS011;22639;42.690;23.356;2022-11-21T12:19:24;2.27;;;1.60;;
36391;SDS011;22639;42.690;23.356;2022-11-21T12:21:50;2.83;;;2.03;;
36391;SDS011;22639;42.690;23.356;2022-11-21T12:24:15;1.87;;;1.77;;
36391;SDS011;22639;42.690;23.356;2022-11-21T12:26:49;3.10;;;2.50;;
36391;SDS011;22639;42.690;23.356;2022-11-21T12:29:21;2.07;;;1.87;;
36391;SDS011;22639;42.690;23.356;2022-11-21T12:32:07;2.47;;;2.00;;
36391;SDS011;22639;42.690;23.356;2022-11-21T12:39:44;2.50;;;2.20;;
36391;SDS011;22639;42.690;23.356;2022-11-21T12:50:29;3.10;;;2.07;;
36391;SDS011;22639;42.690;23.356;2022-11-21T12:53:23;3.13;;;2.20;;
36391;SDS011;22639;42.690;23.356;2022-11-21T12:56:13;4.93;;;3.10;;
36391;SDS011;22639;42.690;23.356;2022-11-21T12:58:43;3.73;;;2.57;;
36391;SDS011;22639;42.690;23.356;2022-11-21T13:03:58;2.93;;;2.63;;
36391;SDS011;22639;42.690;23.356;2022-11-21T13:06:36;4.83;;;3.30;;
36391;SDS011;22639;42.690;23.356;2022-11-21T13:09:04;4.33;;;3.07;;
36391;SDS011;22639;42.690;23.356;2022-11-21T13:14:20;3.33;;;2.53;;
36391;SDS011;22639;42.690;23.356;2022-11-21T13:17:36;3.57;;;2.17;;
36391;SDS011;22639;42.690;23.356;2022-11-21T13:19:40;2.70;;;2.50;;
36391;SDS011;22639;42.690;23.356;2022-11-21T13:22:07;4.10;;;2.60;;
36391;SDS011;22639;42.690;23.356;2022-11-21T13:35:54;3.63;;;3.07;;
36391;SDS011;22639;42.690;23.356;2022-11-21T13:38:10;3.43;;;2.80;;
36391;SDS011;22639;42.690;23.356;2022-11-21T13:40:39;3.50;;;3.07;;
36391;SDS011;22639;42.690;23.356;2022-11-21T13:43:28;3.67;;;2.80;;
36391;SDS011;22639;42.690;23.356;2022-11-21T13:45:53;3.47;;;2.47;;
36391;SDS011;22639;42.690;23.356;2022-11-21T13:55:55;6.07;;;3.40;;
36391;SDS011;22639;42.690;23.356;2022-11-21T14:01:00;5.03;;;3.50;;
36391;SDS011;22639;42.690;23.356;2022-11-21T14:08:26;3.30;;;2.47;;
36391;SDS011;22639;42.690;23.356;2022-11-21T14:10:53;3.90;;;3.47;;
36391;SDS011;22639;42.690;23.356;2022-11-21T14:13:28;4.70;;;3.10;;
36391;SDS011;22639;42.690;23.356;2022-11-21T14:18:26;5.03;;;3.70;;
36391;SDS011;22639;42.690;23.356;2022-11-21T14:20:56;3.67;;;2.57;;
36391;SDS011;22639;42.690;23.356;2022-11-21T14:23:29;6.67;;;4.07;;
36391;SDS011;22639;42.690;23.356;2022-11-21T14:28:22;6.87;;;4.47;;
36391;SDS011;22639;42.690;23.356;2022-11-21T14:30:50;5.17;;;3.70;;
36391;SDS011;22639;42.690;23.356;2022-11-21T14:33:29;5.63;;;3.50;;
36391;SDS011;22639;42.690;23.356;2022-11-21T14:35:57;5.47;;;3.93;;
36391;SDS011;22639;42.690;23.356;2022-11-21T14:38:23;5.37;;;3.57;;
36391;SDS011;22639;42.690;23.356;2022-11-21T14:40:49;5.53;;;4.07;;
36391;SDS011;22639;42.690;23.356;2022-11-21T14:43:31;4.87;;;3.87;;
36391;SDS011;22639;42.690;23.356;2022-11-21T14:45:56;4.90;;;3.87;;
36391;SDS011;22639;42.690;23.356;2022-11-21T14:48:26;6.43;;;3.47;;
36391;SDS011;22639;42.690;23.356;2022-11-21T14:50:51;2.53;;;2.07;;
36391;SDS011;22639;42.690;23.356;2022-11-21T14:53:17;4.70;;;3.77;;
36391;SDS011;22639;42.690;23.356;2022-11-21T14:55:42;6.10;;;3.70;;
36391;SDS011;22639;42.690;23.356;2022-11-21T14:58:12;5.33;;;4.07;;
36391;SDS011;22639;42.690;23.356;2022-11-21T15:00:39;5.20;;;4.23;;
36391;SDS011;22639;42.690;23.356;2022-11-21T15:03:14;4.43;;;3.77;;
36391;SDS011;22639;42.690;23.356;2022-11-21T15:05:41;5.80;;;4.00;;
36391;SDS011;22639;42.690;23.356;2022-11-21T15:08:07;4.70;;;3.87;;
36391;SDS011;22639;42.690;23.356;2022-11-21T15:10:33;5.47;;;4.23;;
36391;SDS011;22639;42.690;23.356;2022-11-21T15:13:04;4.93;;;3.70;;
36391;SDS011;22639;42.690;23.356;2022-11-21T15:18:02;4.67;;;3.10;;
36391;SDS011;22639;42.690;23.356;2022-11-21T15:20:28;3.53;;;3.03;;
36391;SDS011;22639;42.690;23.356;2022-11-21T15:22:54;4.07;;;3.20;;
36391;SDS011;22639;42.690;23.356;2022-11-21T15:25:22;7.53;;;4.20;;
36391;SDS011;22639;42.690;23.356;2022-11-21T15:27:48;6.30;;;4.10;;
36391;SDS011;22639;42.690;23.356;2022-11-21T15:33:02;6.13;;;4.00;;
36391;SDS011;22639;42.690;23.356;2022-11-21T15:38:11;5.67;;;3.57;;
36391;SDS011;22639;42.690;23.356;2022-11-21T15:40:37;3.67;;;2.90;;
36391;SDS011;22639;42.690;23.356;2022-11-21T15:43:02;4.07;;;3.03;;
36391;SDS011;22639;42.690;23.356;2022-11-21T15:45:27;4.03;;;3.17;;
36391;SDS011;22639;42.690;23.356;2022-11-21T15:47:55;5.07;;;3.83;;
36391;SDS011;22639;42.690;23.356;2022-11-21T15:50:21;3.17;;;2.77;;
36391;SDS011;22639;42.690;23.356;2022-11-21T15:52:48;5.10;;;3.23;;
36391;SDS011;22639;42.690;23.356;2022-11-21T15:55:18;4.10;;;3.63;;
36391;SDS011;22639;42.690;23.356;2022-11-21T15:57:43;4.23;;;3.67;;
36391;SDS011;22639;42.690;23.356;2022-11-21T16:00:09;4.97;;;3.20;;
36391;SDS011;22639;42.690;23.356;2022-11-21T16:02:34;4.93;;;3.73;;
36391;SDS011;22639;42.690;23.356;2022-11-21T16:04:59;4.73;;;3.40;;
36391;SDS011;22639;42.690;23.356;2022-11-21T16:07:24;3.80;;;3.40;;
36391;SDS011;22639;42.690;23.356;2022-11-21T16:09:50;3.50;;;3.20;;
36391;SDS011;22639;42.690;23.356;2022-11-21T16:12:16;5.43;;;4.00;;
36391;SDS011;22639;42.690;23.356;2022-11-21T16:14:41;5.23;;;4.73;;
36391;SDS011;22639;42.690;23.356;2022-11-21T16:17:06;4.63;;;3.03;;
36391;SDS011;22639;42.690;23.356;2022-11-21T16:19:32;5.93;;;3.07;;
36391;SDS011;22639;42.690;23.356;2022-11-21T16:21:57;4.73;;;2.80;;
36391;SDS011;22639;42.690;23.356;2022-11-21T16:24:22;3.93;;;3.20;;
36391;SDS011;22639;42.690;23.356;2022-11-21T16:26:47;6.43;;;3.80;;
36391;SDS011;22639;42.690;23.356;2022-11-21T16:29:17;4.97;;;4.07;;
36391;SDS011;22639;42.690;23.356;2022-11-21T16:31:42;4.47;;;3.90;;